Preise (Charter):

Flugzeuge Normalpreis ab 12 h/Jahr -5% ab 20 h/Jahr -8%

Cessna 172 SP

D-E

234,00 € 222,30 € 215,28 €

 

     

Reservierungen können Sie über unser Buchungssystem vornehmen.

Neben unseren Flugzeugen können wir über unser Netzwerk weitere Flugzeuge vermitteln.

Für weitere Informationen füllen Sie bitte das Kontaktformular aus oder wenden sich direkt an:

Christian Sabionski

Tel.:   +49 (0)172 8140311

Flugwetter Augsburg

[source: ADDS]
METAR
EDMA 230020Z AUTO 32011G21KT 280V340 2600 // OVC020/// 15/13 Q1010 =
TAF EDMA 221700Z 2218/2303 VRB03KT 9999 SCT040 PROB30 TEMPO 2223/2303 23015G25KT TSRA BKN035CB
TAF
TAF EDMA 221700Z 2218/2303 VRB03KT 9999 SCT040 PROB30 TEMPO 2223/2303 23015G25KT TSRA BKN035CB =
Cookies erleichtern die Bereitstellung unserer Dienste. Mit der Nutzung unserer Dienste erklären Sie sich damit einverstanden, dass wir Cookies verwenden.
Weitere Informationen Ok